Gustavus, AK

3:47 PM AKST on February 12, 2016 (GMT -0900)
Hoonah | | Change Station
CLOSE
Current Station
Airport
Location: Hoonah,
Elevation: 0 ft
Nearby Weather Stations

Elev 0 ft 58.11 °N, 135.45 °W | Updated 51 minutes ago

Light Rain
Light Rain
45 °F
Feels Like 41 °F
N
7
Wind Variable Wind from East

Today
High -- | Low -- °F
--% Chance of Precip.
Yesterday
High -- | Low -- °F
Precip. -- in
Pressure 29.73 in
Visibility 10.0 miles
Clouds Mostly Cloudy 3600 ft
Overcast 4600 ft
Windchill 41 °F
Dew Point 38 °F
Humidity 76%
Rainfall 0.00 in
Snow Depth Not available.
7:43 AM 4:51 PM
Waxing Crescent, 25% visible
METAR PAOH 122356Z AUTO 09006KT 10SM -RA BKN036 OVC046 07/03 A2973 RMK AO2 RAB11 SLPNO 6//// T00720033
Pressure 29.73 in
Visibility 10.0 miles
Clouds Mostly Cloudy 3600 ft
Overcast 4600 ft
Windchill 41 °F
Dew Point 38 °F
Humidity 76%
Rainfall 0.00 in
Snow Depth Not available.
7:43 AM 4:51 PM
Waxing Crescent, 25% visible
METAR PAOH 122356Z AUTO 09006KT 10SM -RA BKN036 OVC046 07/03 A2973 RMK AO2 RAB11 SLPNO 6//// T00720033

10-Day Weather Forecast

Almanac

Astronomy

Feb. 12, 2016 Rise Set
Actual Time
Civil Twilight
Nautical Twilight
Astronomical Twilight
Moon
Length of Visible Light
Length of Day
Tomorrow will be .
, % of the Moon is Illuminated

Today's Extremes

State Highs State Lows

Community

WunderPhotos

Upload Photos

1,892,444 photos uploaded!

WunderBlog® & News

Nearby

Air Quality

  Air Quality AQ Index Pollutant
Not available.

Snow Depth

Station Depth Elevation

Earthquake Activity

City Distance Mag. Time & Date
Minimum magnitude displayed is 2.5.

Coastal Water Temperatures

Place Temperature

Stations

Nearby Weather Stations

Station Location Temp. Windchill Dew Point Humidity Wind Precip. Elev Updated Type
                   

Watches & Warnings

There are currently no watches in effect.